createdAt,value
2023-03-29T00:00:51.396Z,18.10
2023-03-29T00:03:21.922Z,19.83
2023-03-29T00:05:58.897Z,20.45
2023-03-29T00:08:33.090Z,23.58
2023-03-29T00:11:04.326Z,22.03
2023-03-29T00:13:35.315Z,22.77
2023-03-29T00:16:05.799Z,21.95
2023-03-29T00:18:37.568Z,22.33
2023-03-29T00:21:08.087Z,22.42
2023-03-29T00:23:38.588Z,21.10
2023-03-29T00:26:09.711Z,17.52
2023-03-29T00:28:40.152Z,17.05
2023-03-29T00:31:17.068Z,14.20
2023-03-29T00:33:48.624Z,14.73
2023-03-29T00:36:19.570Z,13.25
2023-03-29T00:38:49.999Z,11.88
2023-03-29T00:41:21.236Z,12.13
2023-03-29T00:44:03.195Z,12.80
2023-03-29T00:46:36.391Z,12.10
2023-03-29T00:49:16.886Z,17.95
2023-03-29T00:51:49.673Z,19.63
2023-03-29T00:54:21.091Z,14.90
2023-03-29T00:56:53.114Z,12.90
2023-03-29T00:59:30.495Z,10.32
2023-03-29T01:02:06.885Z,9.80
2023-03-29T01:04:44.145Z,8.95
2023-03-29T01:07:32.339Z,7.80
2023-03-29T01:10:25.559Z,7.47
2023-03-29T01:13:04.058Z,6.88
2023-03-29T01:15:35.881Z,8.18
2023-03-29T01:18:06.883Z,8.48
2023-03-29T01:21:06.373Z,7.35
2023-03-29T01:23:49.356Z,8.43
2023-03-29T01:26:33.307Z,7.07
2023-03-29T01:29:25.306Z,6.07
2023-03-29T01:32:18.804Z,6.78
2023-03-29T01:35:02.545Z,7.18
2023-03-29T01:37:39.137Z,7.50
2023-03-29T01:40:10.274Z,7.60
2023-03-29T01:42:58.030Z,6.68
2023-03-29T01:45:54.319Z,7.70
2023-03-29T01:48:34.244Z,5.40
2023-03-29T01:51:13.882Z,4.70
2023-03-29T01:53:50.268Z,5.35
2023-03-29T01:56:24.996Z,5.05
2023-03-29T01:59:02.794Z,5.57
2023-03-29T02:01:39.784Z,5.78
2023-03-29T02:04:15.743Z,5.75
2023-03-29T02:06:47.410Z,6.50
2023-03-29T02:09:19.039Z,5.85
2023-03-29T02:11:52.126Z,6.32
2023-03-29T02:14:22.850Z,6.20
2023-03-29T02:16:54.664Z,5.45
2023-03-29T02:19:29.544Z,5.07
2023-03-29T02:22:11.808Z,4.88
2023-03-29T02:24:47.153Z,4.40
2023-03-29T02:27:17.831Z,3.83
2023-03-29T02:29:49.377Z,4.63
2023-03-29T02:32:58.238Z,5.18
2023-03-29T02:35:39.402Z,4.60
2023-03-29T02:38:13.097Z,4.57
2023-03-29T02:40:45.698Z,4.90
2023-03-29T02:43:18.601Z,3.90
2023-03-29T02:45:50.100Z,4.70
2023-03-29T02:48:26.179Z,5.38
2023-03-29T02:51:02.729Z,4.07
2023-03-29T02:53:53.531Z,4.22
2023-03-29T02:56:24.196Z,3.70
2023-03-29T02:58:54.660Z,3.50
2023-03-29T03:01:25.230Z,3.30
2023-03-29T03:03:55.950Z,3.60
2023-03-29T03:06:26.883Z,3.38
2023-03-29T03:08:58.437Z,3.50
2023-03-29T03:11:34.030Z,3.47
2023-03-29T03:14:04.770Z,3.97
2023-03-29T03:16:36.225Z,4.03
2023-03-29T03:19:09.812Z,3.55
2023-03-29T03:21:41.043Z,4.13
2023-03-29T03:24:11.883Z,4.30
2023-03-29T03:26:42.936Z,5.07
2023-03-29T03:29:13.850Z,6.05
2023-03-29T03:32:29.317Z,6.13
2023-03-29T03:35:15.639Z,6.30
2023-03-29T03:37:46.762Z,5.32
2023-03-29T03:40:58.670Z,5.28
2023-03-29T03:43:30.560Z,5.80
2023-03-29T03:46:01.851Z,5.82
2023-03-29T03:48:33.993Z,6.05
2023-03-29T03:51:11.678Z,6.00
2023-03-29T03:56:31.500Z,4.18
2023-03-29T03:59:15.188Z,4.40
2023-03-29T04:01:58.286Z,4.88
2023-03-29T04:04:30.239Z,4.70
2023-03-29T04:07:46.565Z,5.07
2023-03-29T04:10:37.850Z,4.55
2023-03-29T04:16:11.796Z,4.70
2023-03-29T04:18:42.533Z,5.18
2023-03-29T04:21:13.682Z,5.55
2023-03-29T04:26:45.251Z,4.88
2023-03-29T04:29:22.499Z,4.68
2023-03-29T04:31:59.398Z,5.55
2023-03-29T04:34:50.110Z,6.00
2023-03-29T04:37:23.543Z,6.35
2023-03-29T04:39:56.330Z,6.38
2023-03-29T04:42:27.376Z,5.95
2023-03-29T04:44:58.880Z,7.88
2023-03-29T04:47:45.013Z,6.25
2023-03-29T04:50:20.397Z,6.50
2023-03-29T04:52:52.266Z,8.27
2023-03-29T04:55:23.864Z,6.25
2023-03-29T04:58:01.517Z,5.22
2023-03-29T05:00:35.061Z,5.72
2023-03-29T05:03:34.122Z,5.90
2023-03-29T05:06:13.690Z,4.72
2023-03-29T05:08:44.845Z,5.38
2023-03-29T05:11:29.128Z,4.53
2023-03-29T05:14:03.966Z,4.88
2023-03-29T05:16:37.212Z,3.88
2023-03-29T05:19:08.877Z,4.03
2023-03-29T05:21:44.316Z,4.30
2023-03-29T05:24:19.867Z,3.55
2023-03-29T05:26:58.772Z,3.42
2023-03-29T05:29:34.371Z,3.60
2023-03-29T05:32:25.482Z,3.10
2023-03-29T05:34:55.972Z,3.70
2023-03-29T05:37:29.559Z,2.75
2023-03-29T05:40:06.170Z,3.35
2023-03-29T05:42:45.088Z,2.70
2023-03-29T05:45:15.606Z,2.80
2023-03-29T05:47:46.197Z,3.47
2023-03-29T05:50:17.570Z,3.13
2023-03-29T05:52:49.362Z,2.85
2023-03-29T05:55:21.066Z,3.13
2023-03-29T05:57:51.745Z,2.58
2023-03-29T06:00:27.087Z,3.15
2023-03-29T06:08:30.300Z,3.42
2023-03-29T06:11:12.471Z,4.30
2023-03-29T06:14:01.750Z,5.25
2023-03-29T06:16:32.943Z,5.45
2023-03-29T06:19:04.168Z,5.93
2023-03-29T06:21:37.242Z,5.05
2023-03-29T06:24:09.380Z,6.45
2023-03-29T06:26:49.043Z,6.28
2023-03-29T06:29:19.642Z,5.93
2023-03-29T06:31:50.826Z,5.70
2023-03-29T06:34:43.524Z,5.77
2023-03-29T06:37:31.133Z,7.15
2023-03-29T06:40:16.596Z,5.70
2023-03-29T06:42:48.646Z,7.00
2023-03-29T06:45:47.996Z,7.18
2023-03-29T06:48:42.978Z,7.70
2023-03-29T06:51:13.711Z,7.22
2023-03-29T06:53:44.784Z,6.72
2023-03-29T06:56:16.155Z,6.47
2023-03-29T06:59:06.930Z,6.43
2023-03-29T07:01:48.868Z,6.35
2023-03-29T07:04:26.614Z,5.88
2023-03-29T07:07:46.520Z,6.65
2023-03-29T07:10:36.740Z,6.38
2023-03-29T07:13:27.818Z,6.55
2023-03-29T07:16:00.862Z,6.60
2023-03-29T07:18:57.310Z,7.15
2023-03-29T07:21:51.964Z,6.45
2023-03-29T07:24:24.914Z,5.50
2023-03-29T07:27:03.810Z,6.00
2023-03-29T07:29:36.607Z,5.63
2023-03-29T07:32:07.190Z,6.30
2023-03-29T07:34:49.547Z,6.13
2023-03-29T07:37:28.592Z,6.38
2023-03-29T07:40:06.013Z,6.03
2023-03-29T07:42:48.334Z,5.05
2023-03-29T07:45:26.549Z,6.20
2023-03-29T07:48:04.366Z,5.55
2023-03-29T07:50:50.114Z,5.50
2023-03-29T07:53:24.663Z,5.40
2023-03-29T07:55:57.759Z,5.63
2023-03-29T07:58:51.120Z,5.85
2023-03-29T08:01:23.172Z,5.55
2023-03-29T08:06:55.800Z,5.55
2023-03-29T08:09:33.670Z,4.70
2023-03-29T08:12:04.550Z,4.95
2023-03-29T08:14:40.043Z,5.13
2023-03-29T08:17:26.038Z,4.28
2023-03-29T08:19:56.623Z,4.95
2023-03-29T08:22:27.720Z,4.60
2023-03-29T08:25:37.266Z,4.45
2023-03-29T08:28:09.475Z,4.50
2023-03-29T08:30:48.464Z,4.82
2023-03-29T08:33:19.730Z,4.60
2023-03-29T08:35:58.043Z,4.93
2023-03-29T08:38:32.839Z,4.60
2023-03-29T08:41:04.199Z,4.45
2023-03-29T08:44:12.901Z,4.97
2023-03-29T08:47:22.029Z,5.10
2023-03-29T08:49:57.916Z,4.60
2023-03-29T08:52:53.889Z,4.80
2023-03-29T08:55:50.651Z,4.45
2023-03-29T08:58:48.526Z,5.30
2023-03-29T09:01:19.205Z,5.30
2023-03-29T09:04:16.419Z,6.50
2023-03-29T09:06:59.391Z,5.38
2023-03-29T09:09:39.216Z,6.93
2023-03-29T09:12:50.156Z,5.65
2023-03-29T09:15:30.215Z,5.60
2023-03-29T09:18:32.642Z,6.10
2023-03-29T09:21:19.914Z,5.57
2023-03-29T09:23:56.364Z,5.13
2023-03-29T09:26:50.653Z,5.63
2023-03-29T09:29:58.091Z,5.40
2023-03-29T09:32:51.969Z,5.43
2023-03-29T09:35:57.831Z,5.57
2023-03-29T09:38:33.648Z,5.18
2023-03-29T09:41:29.181Z,5.47
2023-03-29T09:44:03.544Z,5.38
2023-03-29T09:47:02.186Z,5.70
2023-03-29T09:49:42.120Z,6.00
2023-03-29T09:52:18.118Z,5.18
2023-03-29T09:54:59.422Z,5.20
2023-03-29T09:57:45.336Z,5.88
2023-03-29T10:00:21.198Z,5.53
2023-03-29T10:03:01.522Z,6.30
2023-03-29T10:05:47.065Z,6.07
2023-03-29T10:08:29.454Z,6.60
2023-03-29T10:11:04.002Z,5.90
2023-03-29T10:13:38.364Z,6.40
2023-03-29T10:16:10.767Z,6.20
2023-03-29T10:18:45.380Z,5.50
2023-03-29T10:21:18.176Z,6.20
2023-03-29T10:23:50.873Z,5.70
2023-03-29T10:26:40.376Z,7.10
2023-03-29T10:29:14.701Z,6.07
2023-03-29T10:31:45.501Z,6.13
2023-03-29T10:34:18.316Z,5.78
2023-03-29T10:37:00.522Z,5.78
2023-03-29T10:39:36.092Z,5.72
2023-03-29T10:42:09.919Z,5.85
2023-03-29T10:44:40.465Z,5.53
2023-03-29T10:47:21.058Z,5.10
2023-03-29T10:50:03.375Z,5.32
2023-03-29T10:52:35.789Z,5.88
2023-03-29T10:55:06.782Z,5.70
2023-03-29T10:58:09.086Z,5.30
2023-03-29T11:00:56.773Z,5.65
2023-03-29T11:03:48.585Z,5.55
2023-03-29T11:07:03.703Z,5.40
2023-03-29T11:09:55.573Z,5.70
2023-03-29T11:12:27.971Z,5.55
2023-03-29T11:15:16.513Z,5.40
2023-03-29T11:18:04.869Z,5.57
2023-03-29T11:21:00.873Z,5.47
2023-03-29T11:23:34.510Z,6.10
2023-03-29T11:26:24.880Z,6.20
2023-03-29T11:29:13.840Z,6.13
2023-03-29T11:31:56.783Z,6.53
2023-03-29T11:34:51.988Z,6.43
2023-03-29T11:37:30.651Z,6.40
2023-03-29T11:40:35.851Z,6.60
2023-03-29T11:43:12.846Z,5.57
2023-03-29T11:46:00.006Z,6.63
2023-03-29T11:48:48.986Z,6.43
2023-03-29T11:51:39.966Z,6.70
2023-03-29T11:54:20.143Z,6.03
2023-03-29T11:57:25.615Z,6.65
2023-03-29T12:00:21.220Z,6.88
2023-03-29T12:03:04.242Z,7.00
2023-03-29T12:05:59.171Z,7.05
2023-03-29T12:08:48.176Z,7.22
2023-03-29T12:11:24.858Z,7.80
2023-03-29T12:14:05.655Z,6.90
2023-03-29T12:16:40.341Z,6.95
2023-03-29T12:19:43.270Z,7.13
2023-03-29T12:22:14.462Z,7.40
2023-03-29T12:27:22.298Z,7.90
2023-03-29T12:30:14.956Z,6.85
2023-03-29T12:33:00.575Z,7.32
2023-03-29T12:36:45.347Z,7.53
2023-03-29T12:39:22.438Z,7.50
2023-03-29T12:42:27.860Z,8.05
2023-03-29T12:45:32.437Z,7.40
2023-03-29T12:48:03.767Z,6.53
2023-03-29T12:50:50.941Z,7.47
2023-03-29T12:53:30.032Z,7.57
2023-03-29T12:56:09.992Z,7.75
2023-03-29T12:58:45.568Z,8.48
2023-03-29T13:01:33.009Z,8.30
2023-03-29T13:04:04.732Z,7.22
2023-03-29T13:07:04.433Z,7.80
2023-03-29T13:09:49.241Z,7.88
2023-03-29T13:12:30.221Z,7.95
2023-03-29T13:15:23.601Z,7.72
2023-03-29T13:18:12.813Z,7.93
2023-03-29T13:21:04.056Z,7.90
2023-03-29T13:23:53.693Z,7.78
2023-03-29T13:26:55.192Z,7.80
2023-03-29T13:29:39.827Z,7.68
2023-03-29T13:32:19.513Z,7.53
2023-03-29T13:34:58.224Z,7.78
2023-03-29T13:38:01.655Z,7.63
2023-03-29T13:40:49.170Z,8.32
2023-03-29T13:43:25.208Z,7.90
2023-03-29T13:46:00.217Z,7.72
2023-03-29T13:48:36.951Z,8.15
2023-03-29T13:51:29.609Z,7.88
2023-03-29T13:54:19.673Z,8.02
2023-03-29T13:57:18.645Z,7.70
2023-03-29T14:00:14.429Z,7.93
2023-03-29T14:03:04.138Z,7.90
2023-03-29T14:05:47.412Z,8.45
2023-03-29T14:08:19.604Z,8.30
2023-03-29T14:10:55.201Z,7.55
2023-03-29T14:13:28.779Z,8.13
2023-03-29T14:16:09.938Z,7.78
2023-03-29T14:18:46.073Z,8.70
2023-03-29T14:21:18.274Z,8.00
2023-03-29T14:23:57.448Z,8.27
2023-03-29T14:26:33.785Z,8.73
2023-03-29T14:29:08.909Z,9.10
2023-03-29T14:31:42.888Z,8.52
2023-03-29T14:34:21.075Z,8.48
2023-03-29T14:36:58.427Z,8.68
2023-03-29T14:39:30.980Z,8.88
2023-03-29T14:42:02.405Z,8.60
2023-03-29T14:44:38.902Z,9.30
2023-03-29T14:47:17.450Z,8.43
2023-03-29T14:49:49.815Z,7.80
2023-03-29T14:52:21.550Z,8.25
2023-03-29T14:54:58.161Z,8.05
2023-03-29T14:57:34.109Z,8.27
2023-03-29T15:00:20.592Z,8.75
2023-03-29T15:02:57.429Z,9.02
2023-03-29T15:05:40.828Z,9.52
2023-03-29T15:08:57.632Z,9.48
2023-03-29T15:11:33.165Z,9.20
2023-03-29T15:14:10.581Z,8.45
2023-03-29T15:16:47.196Z,8.82
2023-03-29T15:19:23.605Z,8.80
2023-03-29T15:21:55.107Z,9.10
2023-03-29T15:24:33.024Z,9.13
2023-03-29T15:27:16.558Z,8.98
2023-03-29T15:29:49.567Z,9.13
2023-03-29T15:32:27.257Z,8.88
2023-03-29T15:35:10.939Z,9.98
2023-03-29T15:37:41.435Z,8.85
2023-03-29T15:40:21.694Z,8.73
2023-03-29T15:42:53.333Z,8.52
2023-03-29T15:45:26.067Z,9.00
2023-03-29T15:47:56.934Z,9.23
2023-03-29T15:50:28.327Z,9.60
2023-03-29T15:53:14.109Z,9.20
2023-03-29T15:55:57.340Z,9.18
2023-03-29T15:58:31.648Z,8.32
2023-03-29T16:01:52.261Z,7.68
2023-03-29T16:04:24.747Z,9.20
2023-03-29T16:07:01.965Z,9.20
2023-03-29T16:09:32.910Z,9.02
2023-03-29T16:12:03.509Z,8.95
2023-03-29T16:14:35.475Z,9.45
2023-03-29T16:17:07.914Z,8.82
2023-03-29T16:19:38.451Z,8.52
2023-03-29T16:22:09.472Z,8.30
2023-03-29T16:24:40.987Z,9.02
2023-03-29T16:27:11.370Z,8.32
2023-03-29T16:29:42.654Z,8.98
2023-03-29T16:32:14.832Z,9.13
2023-03-29T16:34:48.896Z,9.05
2023-03-29T16:37:20.030Z,8.52
2023-03-29T16:39:50.908Z,8.32
2023-03-29T16:42:21.851Z,8.95
2023-03-29T16:44:52.981Z,9.07
2023-03-29T16:47:23.585Z,8.80
2023-03-29T16:49:54.893Z,8.63
2023-03-29T16:52:25.416Z,9.88
2023-03-29T16:54:56.867Z,9.48
2023-03-29T16:57:29.440Z,9.30
2023-03-29T17:00:00.391Z,8.50
2023-03-29T17:02:31.063Z,9.43
2023-03-29T17:05:01.561Z,10.00
2023-03-29T17:07:32.430Z,8.88
2023-03-29T17:10:06.128Z,9.15
2023-03-29T17:12:36.877Z,9.88
2023-03-29T17:15:09.390Z,10.43
2023-03-29T17:17:41.231Z,9.45
2023-03-29T17:20:13.914Z,9.90
2023-03-29T17:22:44.454Z,8.82
2023-03-29T17:25:20.224Z,9.50
2023-03-29T17:27:52.534Z,10.18
2023-03-29T17:30:28.545Z,9.70
2023-03-29T17:32:59.085Z,8.73
2023-03-29T17:35:29.984Z,10.63
2023-03-29T17:38:01.884Z,9.75
2023-03-29T17:40:32.404Z,9.68
2023-03-29T17:43:02.908Z,9.38
2023-03-29T17:45:33.801Z,9.23
2023-03-29T17:48:06.238Z,9.95
2023-03-29T17:50:37.117Z,9.60
2023-03-29T17:53:08.133Z,9.77
2023-03-29T17:55:40.687Z,10.00
2023-03-29T17:58:11.115Z,9.80
2023-03-29T18:00:41.905Z,10.35
2023-03-29T18:03:12.639Z,10.07
2023-03-29T18:05:43.816Z,9.35
2023-03-29T18:08:15.269Z,11.25
2023-03-29T18:10:45.914Z,10.00
2023-03-29T18:13:17.557Z,10.52
2023-03-29T18:15:49.107Z,10.98
2023-03-29T18:18:19.802Z,10.50
2023-03-29T18:20:52.026Z,10.02
2023-03-29T18:23:22.466Z,9.68
2023-03-29T18:25:53.874Z,10.57
2023-03-29T18:28:26.496Z,10.57
2023-03-29T18:30:58.720Z,10.75
2023-03-29T18:33:31.760Z,10.65
2023-03-29T18:36:02.793Z,10.60
2023-03-29T18:38:37.683Z,11.05
2023-03-29T18:41:10.003Z,10.82
2023-03-29T18:43:41.327Z,10.25
2023-03-29T18:46:11.954Z,10.57
2023-03-29T18:48:43.293Z,10.00
2023-03-29T18:51:14.896Z,10.82
2023-03-29T18:53:45.837Z,10.45
2023-03-29T18:56:16.269Z,10.43
2023-03-29T18:58:46.873Z,10.25
2023-03-29T19:01:18.078Z,11.07
2023-03-29T19:03:50.307Z,10.65
2023-03-29T19:06:20.937Z,11.13
2023-03-29T19:08:51.469Z,10.02
2023-03-29T19:11:21.997Z,10.65
2023-03-29T19:13:53.799Z,11.48
2023-03-29T19:16:24.328Z,10.65
2023-03-29T19:18:55.288Z,10.80
2023-03-29T19:21:26.162Z,10.68
2023-03-29T19:23:56.536Z,10.02
2023-03-29T19:26:27.790Z,10.75
2023-03-29T19:29:02.295Z,11.48
2023-03-29T19:31:35.017Z,10.57
2023-03-29T19:34:11.078Z,10.52
2023-03-29T19:36:42.596Z,11.32
2023-03-29T19:39:13.327Z,10.90
2023-03-29T19:41:43.812Z,11.13
2023-03-29T19:44:15.293Z,11.25
2023-03-29T19:46:47.686Z,10.65
2023-03-29T19:51:49.484Z,11.07
2023-03-29T19:54:19.983Z,11.60
2023-03-29T19:56:52.352Z,11.55
2023-03-29T19:59:23.282Z,11.63
2023-03-29T20:01:53.794Z,12.38
2023-03-29T20:04:26.101Z,13.02
2023-03-29T20:06:58.098Z,11.43
2023-03-29T20:09:28.797Z,12.90
2023-03-29T20:11:59.368Z,12.48
2023-03-29T20:14:29.926Z,11.85
2023-03-29T20:17:01.612Z,12.15
2023-03-29T20:19:32.204Z,12.52
2023-03-29T20:22:03.422Z,11.98
2023-03-29T20:24:34.097Z,13.23
2023-03-29T20:27:06.035Z,13.38
2023-03-29T20:29:37.096Z,13.70
2023-03-29T20:32:08.053Z,13.02
2023-03-29T20:34:38.630Z,12.80
2023-03-29T20:37:09.815Z,13.05
2023-03-29T20:39:40.514Z,13.27
2023-03-29T20:42:12.723Z,12.23
2023-03-29T20:44:43.287Z,11.95
2023-03-29T20:47:18.299Z,11.90
2023-03-29T20:49:48.984Z,12.75
2023-03-29T20:52:20.369Z,13.00
2023-03-29T20:54:51.846Z,12.23
2023-03-29T20:57:23.067Z,12.63
2023-03-29T20:59:54.747Z,12.82
2023-03-29T21:02:26.262Z,13.35
2023-03-29T21:05:01.727Z,12.85
2023-03-29T21:07:32.472Z,13.18
2023-03-29T21:10:03.192Z,13.02
2023-03-29T21:12:33.715Z,13.48
2023-03-29T21:15:05.394Z,13.13
2023-03-29T21:17:36.361Z,13.30
2023-03-29T21:20:11.717Z,13.27
2023-03-29T21:22:47.055Z,13.82
2023-03-29T21:25:18.122Z,13.75
2023-03-29T21:27:48.849Z,13.75
2023-03-29T21:30:19.286Z,13.25
2023-03-29T21:32:50.008Z,12.82
2023-03-29T21:35:22.206Z,14.95
2023-03-29T21:37:52.791Z,13.70
2023-03-29T21:40:23.257Z,13.48
2023-03-29T21:42:54.137Z,13.15
2023-03-29T21:45:25.009Z,13.18
2023-03-29T21:47:55.920Z,13.15
2023-03-29T21:50:27.162Z,13.23
2023-03-29T21:52:57.594Z,12.85
2023-03-29T21:55:27.834Z,12.90
2023-03-29T21:57:58.258Z,12.05
2023-03-29T22:00:29.077Z,13.32
2023-03-29T22:02:59.778Z,13.60
2023-03-29T22:05:30.277Z,13.07
2023-03-29T22:08:00.758Z,12.75
2023-03-29T22:10:31.198Z,12.65
2023-03-29T22:13:02.504Z,13.27
2023-03-29T22:15:36.953Z,13.02
2023-03-29T22:18:08.069Z,12.82
2023-03-29T22:20:38.695Z,12.30
2023-03-29T22:23:09.307Z,12.98
2023-03-29T22:25:39.751Z,12.75
2023-03-29T22:28:10.999Z,13.95
2023-03-29T22:30:42.280Z,12.70
2023-03-29T22:33:12.981Z,11.95
2023-03-29T22:35:43.569Z,9.32
2023-03-29T22:38:13.861Z,8.88
2023-03-29T22:40:44.365Z,9.15
2023-03-29T22:43:50.566Z,10.05
2023-03-29T22:47:06.314Z,9.20
2023-03-29T22:50:30.075Z,14.82
2023-03-29T22:53:22.006Z,13.48
2023-03-29T22:56:28.251Z,11.35
2023-03-29T22:59:13.293Z,12.02
2023-03-29T23:01:58.892Z,10.32
2023-03-29T23:04:44.166Z,11.57
2023-03-29T23:07:24.238Z,12.35
2023-03-29T23:09:58.411Z,12.07
2023-03-29T23:13:05.480Z,12.30
2023-03-29T23:16:06.441Z,13.60
2023-03-29T23:18:42.485Z,13.52
2023-03-29T23:23:43.367Z,14.63
2023-03-29T23:26:20.951Z,14.95
2023-03-29T23:28:53.045Z,14.30
2023-03-29T23:31:25.340Z,14.20
2023-03-29T23:33:56.347Z,13.63
2023-03-29T23:36:28.776Z,13.27
2023-03-29T23:41:56.739Z,14.20
2023-03-29T23:44:31.778Z,14.35
2023-03-29T23:47:15.333Z,13.68
2023-03-29T23:50:08.293Z,14.32
2023-03-29T23:52:38.724Z,13.40
2023-03-29T23:55:14.468Z,13.95
2023-03-29T23:57:45.206Z,14.75
